Time;durP1;ratioP1;P1;durP2;ratioP2;P2;SDS_P1;SDS_P2;PMS_P1;PMS_P2;Temp;Humidity;BMP_temperature;BMP_pressure;BME280_temperature;BME280_humidity;BME280_pressure;Samples;Min_cycle;Max_cycle;Signal;HPM_P1;HPM_P2
2022/04/13 00:01:16;;;;;;;23.40;13.73;;;10.70;62.00;;;;;;5054285;28;20029;-73
2022/04/13 00:03:43;;;;;;;20.50;14.05;;;10.70;62.40;;;;;;5052244;28;20437;-72
2022/04/13 00:06:09;;;;;;;22.98;13.95;;;10.60;62.50;;;;;;5054015;28;20373;-72
2022/04/13 00:08:35;;;;;;;23.85;14.35;;;10.50;63.00;;;;;;5053202;28;20529;-72
2022/04/13 00:11:01;;;;;;;23.17;14.70;;;10.60;62.90;;;;;;5054305;28;20099;-72
2022/04/13 00:13:27;;;;;;;20.65;14.05;;;10.50;63.10;;;;;;5053940;28;20052;-72
2022/04/13 00:15:52;;;;;;;19.60;14.13;;;10.60;63.10;;;;;;5053347;28;20135;-72
2022/04/13 00:18:18;;;;;;;20.65;13.65;;;10.50;63.10;;;;;;5053782;28;20533;-73
2022/04/13 00:20:45;;;;;;;20.70;13.82;;;10.50;63.50;;;;;;5053220;28;20029;-73
2022/04/13 00:23:11;;;;;;;19.08;13.50;;;10.60;63.60;;;;;;5053803;28;20097;-73
2022/04/13 00:25:39;;;;;;;22.02;14.07;;;10.50;63.60;;;;;;5053095;28;20036;-73
2022/04/13 00:28:06;;;;;;;18.95;14.55;;;10.50;63.80;;;;;;5053773;28;20044;-73
2022/04/13 00:30:32;;;;;;;19.70;14.50;;;10.50;63.80;;;;;;5053739;28;20462;-73
2022/04/13 00:32:58;;;;;;;22.30;14.10;;;10.50;64.20;;;;;;5052742;28;20464;-73
2022/04/13 00:35:23;;;;;;;21.20;14.00;;;10.40;64.30;;;;;;5053700;28;20040;-73
2022/04/13 00:37:49;;;;;;;25.15;14.52;;;10.40;64.40;;;;;;5052739;28;20466;-73
2022/04/13 00:40:15;;;;;;;24.58;13.70;;;10.40;64.50;;;;;;5053131;28;20087;-73
2022/04/13 00:42:40;;;;;;;19.50;13.93;;;10.40;64.80;;;;;;5052864;28;20036;-73
2022/04/13 00:45:06;;;;;;;20.48;14.63;;;10.40;65.20;;;;;;5053377;28;20025;-73
2022/04/13 00:47:37;;;;;;;23.65;13.90;;;10.30;65.10;;;;;;5052725;28;20530;-72
2022/04/13 00:50:03;;;;;;;25.02;15.32;;;10.30;65.70;;;;;;5053139;28;20021;-73
2022/04/13 00:52:49;;;;;;;20.67;14.13;;;10.30;65.70;;;;;;5053143;28;20485;-73
2022/04/13 00:55:15;;;;;;;23.85;14.95;;;10.20;66.00;;;;;;5052970;28;20037;-73
2022/04/13 00:57:42;;;;;;;21.27;15.02;;;10.20;66.20;;;;;;5052069;28;20049;-73
2022/04/13 01:00:12;;;;;;;21.48;14.43;;;10.20;66.30;;;;;;5053213;28;20032;-73
2022/04/13 01:02:39;;;;;;;26.40;14.97;;;10.20;66.80;;;;;;5052214;28;20493;-73
2022/04/13 01:05:06;;;;;;;25.30;14.02;;;10.10;66.70;;;;;;5053013;28;20025;-73
2022/04/13 01:07:33;;;;;;;23.52;14.80;;;10.10;67.10;;;;;;5052834;28;20025;-72
2022/04/13 01:10:00;;;;;;;21.42;13.93;;;10.10;67.40;;;;;;5052158;28;20037;-74
2022/04/13 01:12:26;;;;;;;25.17;14.80;;;10.10;67.40;;;;;;5052756;28;20104;-74
2022/04/13 01:14:52;;;;;;;19.05;13.18;;;10.00;67.50;;;;;;5052330;28;20437;-73
2022/04/13 01:17:18;;;;;;;22.67;14.73;;;10.00;67.80;;;;;;5052559;28;20047;-74
2022/04/13 01:19:46;;;;;;;21.65;14.50;;;10.00;67.90;;;;;;5051966;28;20056;-73
2022/04/13 01:22:22;;;;;;;23.30;14.82;;;10.00;68.50;;;;;;5052252;28;20083;-73
2022/04/13 01:24:48;;;;;;;20.60;13.25;;;10.00;67.90;;;;;;5051981;28;20025;-74
2022/04/13 01:27:14;;;;;;;22.60;14.75;;;10.00;67.70;;;;;;5052495;28;20032;-73
2022/04/13 01:29:45;;;;;;;20.13;13.35;;;10.00;67.80;;;;;;5051836;28;20021;-73
2022/04/13 01:32:14;;;;;;;19.50;13.15;;;10.00;67.60;;;;;;5053008;28;20111;-74
2022/04/13 01:34:50;;;;;;;19.48;13.45;;;10.00;67.90;;;;;;5050540;28;20048;-72
2022/04/13 01:37:17;;;;;;;20.80;13.80;;;9.90;68.00;;;;;;5052002;28;20491;-73
2022/04/13 01:39:43;;;;;;;22.45;13.50;;;9.90;68.00;;;;;;5051693;28;20029;-74
2022/04/13 01:42:08;;;;;;;20.42;14.23;;;9.90;67.90;;;;;;5052293;28;20070;-74
2022/04/13 01:44:34;;;;;;;20.20;14.15;;;9.90;68.00;;;;;;5051497;28;20033;-74
2022/04/13 01:47:00;;;;;;;19.33;13.90;;;9.90;68.00;;;;;;5051547;28;20035;-74
2022/04/13 01:49:25;;;;;;;25.67;14.30;;;9.90;68.10;;;;;;5052307;28;20025;-74
2022/04/13 01:51:51;;;;;;;21.20;14.27;;;9.90;67.70;;;;;;5051568;28;20054;-73
2022/04/13 01:54:17;;;;;;;23.17;15.27;;;9.80;68.00;;;;;;5052246;28;20470;-72
2022/04/13 01:56:42;;;;;;;24.05;13.43;;;9.90;67.60;;;;;;5051170;28;20053;-73
2022/04/13 02:01:52;;;;;;;22.05;13.93;;;9.90;67.60;;;;;;5051236;28;20032;-73
2022/04/13 02:04:25;;;;;;;19.25;13.90;;;9.80;67.30;;;;;;5050620;28;20033;-73
2022/04/13 02:06:52;;;;;;;20.30;13.55;;;9.80;67.20;;;;;;5051394;28;20025;-73
2022/04/13 02:09:18;;;;;;;21.15;13.23;;;9.80;67.50;;;;;;5051892;28;20033;-73
2022/04/13 02:11:46;;;;;;;21.40;13.63;;;9.80;67.10;;;;;;5051434;28;20028;-73
2022/04/13 02:14:12;;;;;;;21.10;13.45;;;9.80;66.90;;;;;;5051877;28;20454;-73
2022/04/13 02:16:39;;;;;;;21.08;12.90;;;9.80;66.90;;;;;;5051543;28;20029;-73
2022/04/13 02:19:07;;;;;;;20.25;12.73;;;9.80;66.80;;;;;;5051182;28;20041;-74
2022/04/13 02:21:33;;;;;;;20.90;12.82;;;9.70;66.90;;;;;;5051813;28;20428;-72
2022/04/13 02:26:43;;;;;;;19.13;12.73;;;9.80;66.70;;;;;;5051329;28;20083;-73
2022/04/13 02:29:08;;;;;;;20.48;13.27;;;9.70;67.10;;;;;;5051736;28;20041;-73
2022/04/13 02:31:34;;;;;;;21.63;12.32;;;9.70;67.00;;;;;;5051698;28;20024;-73
2022/04/13 02:34:01;;;;;;;21.35;13.13;;;9.70;67.00;;;;;;5049795;28;20037;-72
2022/04/13 02:36:26;;;;;;;19.50;13.25;;;9.70;67.00;;;;;;5051664;28;20031;-72
2022/04/13 02:38:53;;;;;;;20.13;12.70;;;9.60;66.80;;;;;;5050712;28;20037;-72
2022/04/13 02:41:19;;;;;;;25.98;12.50;;;9.60;67.00;;;;;;5051550;28;20022;-72
2022/04/13 02:43:44;;;;;;;24.15;12.50;;;9.60;67.20;;;;;;5050706;28;20041;-73
2022/04/13 02:46:10;;;;;;;18.85;12.63;;;9.60;67.00;;;;;;5051838;28;20025;-73
2022/04/13 02:48:35;;;;;;;20.23;12.00;;;9.50;67.20;;;;;;5051039;28;20029;-73
2022/04/13 02:51:01;;;;;;;18.13;11.57;;;9.50;67.50;;;;;;5050883;28;20025;-73
2022/04/13 02:53:28;;;;;;;15.43;11.38;;;9.50;67.40;;;;;;5051204;28;20021;-72
2022/04/13 02:55:54;;;;;;;21.50;12.18;;;9.50;67.60;;;;;;5052167;28;20450;-73
2022/04/13 02:58:19;;;;;;;17.52;11.57;;;9.40;67.60;;;;;;5055298;28;20036;-73
2022/04/13 03:00:47;;;;;;;17.55;12.10;;;9.40;67.60;;;;;;5055039;28;20478;-73
2022/04/13 03:03:12;;;;;;;22.00;12.18;;;9.40;67.60;;;;;;5055256;28;20055;-72
2022/04/13 03:05:38;;;;;;;17.40;11.70;;;9.40;67.60;;;;;;5055341;28;20068;-72
2022/04/13 03:08:05;;;;;;;17.25;11.32;;;9.40;67.80;;;;;;5054466;28;20277;-73
2022/04/13 03:10:31;;;;;;;17.15;10.98;;;9.30;68.20;;;;;;5055411;28;20099;-73
2022/04/13 03:12:57;;;;;;;20.73;10.88;;;9.30;68.20;;;;;;5053953;28;20111;-72
2022/04/13 03:15:25;;;;;;;22.23;11.88;;;9.30;68.10;;;;;;5054906;28;20067;-71
2022/04/13 03:17:51;;;;;;;19.55;11.65;;;9.30;68.40;;;;;;5053942;28;20363;-73
2022/04/13 03:20:18;;;;;;;17.88;11.10;;;9.30;68.00;;;;;;5054983;28;20032;-72
2022/04/13 03:22:44;;;;;;;17.88;11.52;;;9.30;68.20;;;;;;5054850;28;20120;-72
2022/04/13 03:25:09;;;;;;;18.75;11.23;;;9.30;67.80;;;;;;5054618;28;20124;-72
2022/04/13 03:27:37;;;;;;;18.33;11.13;;;9.30;67.70;;;;;;5054695;28;20103;-72
2022/04/13 03:30:04;;;;;;;16.33;11.10;;;9.30;67.60;;;;;;5054061;28;20466;-71
2022/04/13 03:32:37;;;;;;;20.75;11.13;;;9.30;67.70;;;;;;5054720;28;20025;-71
2022/04/13 03:35:07;;;;;;;19.23;10.65;;;9.20;67.50;;;;;;5053997;28;20060;-73
2022/04/13 03:37:32;;;;;;;15.13;9.73;;;9.20;67.70;;;;;;5054509;28;20146;-73
2022/04/13 03:39:58;;;;;;;17.25;10.88;;;9.20;67.90;;;;;;5053805;28;20029;-73
2022/04/13 03:42:23;;;;;;;18.10;10.43;;;9.20;67.80;;;;;;5054562;28;20450;-72
2022/04/13 03:44:49;;;;;;;19.58;10.63;;;9.20;67.80;;;;;;5053838;28;20025;-72
2022/04/13 03:47:15;;;;;;;20.05;10.07;;;9.20;67.40;;;;;;5054091;28;20033;-73
2022/04/13 03:49:41;;;;;;;17.02;10.73;;;9.20;67.80;;;;;;5054293;28;20029;-73
2022/04/13 03:52:07;;;;;;;20.27;10.20;;;9.20;67.70;;;;;;5053514;28;20107;-72
2022/04/13 03:54:33;;;;;;;17.48;9.65;;;9.10;67.50;;;;;;5054078;28;20052;-72
2022/04/13 03:56:59;;;;;;;15.80;10.05;;;9.10;68.00;;;;;;5052839;28;20501;-71
2022/04/13 03:59:25;;;;;;;17.90;10.02;;;9.00;68.00;;;;;;5054083;28;20053;-72
2022/04/13 04:01:51;;;;;;;16.40;10.13;;;9.10;67.70;;;;;;5053340;28;20060;-72
2022/04/13 04:04:17;;;;;;;17.33;9.45;;;9.10;67.90;;;;;;5053941;28;20056;-71
2022/04/13 04:06:42;;;;;;;15.60;9.63;;;9.10;67.70;;;;;;5053554;28;20081;-72
2022/04/13 04:09:08;;;;;;;17.05;10.00;;;9.10;67.90;;;;;;5052892;28;20247;-72
2022/04/13 04:11:34;;;;;;;19.63;10.13;;;9.00;67.70;;;;;;5053561;28;20385;-72
2022/04/13 04:14:00;;;;;;;16.60;9.93;;;9.00;67.60;;;;;;5053158;28;20044;-72
2022/04/13 04:16:26;;;;;;;16.10;9.18;;;9.00;67.50;;;;;;5053428;28;20029;-72
2022/04/13 04:18:51;;;;;;;16.30;9.65;;;9.00;67.80;;;;;;5052617;28;20033;-72
2022/04/13 04:21:17;;;;;;;20.98;10.43;;;9.00;67.90;;;;;;5053566;28;20052;-72
2022/04/13 04:23:43;;;;;;;19.38;10.20;;;9.00;67.60;;;;;;5053305;28;20017;-72
2022/04/13 04:26:09;;;;;;;17.48;9.02;;;9.00;67.60;;;;;;5052543;28;20529;-71
2022/04/13 04:28:35;;;;;;;16.38;9.38;;;9.00;67.40;;;;;;5053173;28;20025;-72
2022/04/13 04:31:01;;;;;;;12.20;8.80;;;9.00;67.20;;;;;;5051508;28;20094;-72
2022/04/13 04:33:27;;;;;;;14.55;9.70;;;9.00;66.60;;;;;;5053354;28;20025;-71
2022/04/13 04:35:53;;;;;;;13.95;8.52;;;9.00;66.80;;;;;;5052692;28;20029;-72
2022/04/13 04:38:19;;;;;;;15.63;9.25;;;9.10;66.60;;;;;;5053132;28;20068;-72
2022/04/13 04:40:45;;;;;;;14.88;8.55;;;9.00;66.30;;;;;;5050503;28;20032;-72
2022/04/13 04:43:10;;;;;;;16.85;10.07;;;9.10;66.00;;;;;;5052240;28;20029;-72
2022/04/13 04:45:37;;;;;;;13.55;9.13;;;9.00;66.20;;;;;;5052531;28;20469;-72
2022/04/13 04:48:06;;;;;;;13.70;8.63;;;9.10;65.70;;;;;;5051896;28;20032;-70
2022/04/13 04:50:33;;;;;;;15.38;9.50;;;9.10;65.60;;;;;;5052485;28;20104;-71
2022/04/13 04:52:59;;;;;;;14.75;8.50;;;9.10;65.10;;;;;;5052175;28;20033;-72
2022/04/13 04:55:25;;;;;;;13.82;8.52;;;9.20;65.10;;;;;;5052480;28;20386;-71
2022/04/13 04:57:51;;;;;;;16.58;9.65;;;9.20;64.80;;;;;;5051157;28;20072;-71
2022/04/13 05:00:19;;;;;;;16.55;9.23;;;9.20;64.60;;;;;;5052487;28;20021;-72
2022/04/13 05:02:49;;;;;;;19.17;8.93;;;9.20;64.40;;;;;;5052753;28;20047;-71
2022/04/13 05:05:15;;;;;;;14.50;8.43;;;9.20;64.60;;;;;;5051971;28;20021;-71
2022/04/13 05:07:41;;;;;;;15.13;9.15;;;9.20;64.50;;;;;;5052608;28;20029;-71
2022/04/13 05:10:08;;;;;;;15.48;8.90;;;9.20;64.60;;;;;;5051971;28;20047;-70
2022/04/13 05:12:43;;;;;;;15.82;8.82;;;9.20;64.00;;;;;;5052645;28;20036;-71
2022/04/13 05:15:09;;;;;;;18.45;8.93;;;9.30;63.90;;;;;;5051657;28;20055;-71
2022/04/13 05:17:35;;;;;;;17.33;8.85;;;9.30;63.70;;;;;;5051860;28;20116;-72
2022/04/13 05:20:01;;;;;;;14.48;8.88;;;9.30;63.60;;;;;;5051799;28;20147;-71
2022/04/13 05:22:26;;;;;;;14.60;8.90;;;9.30;63.50;;;;;;5052493;28;20100;-71
2022/04/13 05:24:52;;;;;;;13.30;8.13;;;9.30;63.40;;;;;;5052304;28;20402;-70
2022/04/13 05:27:18;;;;;;;13.70;8.00;;;9.40;63.20;;;;;;5051518;28;20036;-72
2022/04/13 05:29:43;;;;;;;19.13;9.18;;;9.40;62.90;;;;;;5052378;28;20025;-71
2022/04/13 05:32:09;;;;;;;13.52;9.00;;;9.40;62.80;;;;;;5051401;28;20063;-72
2022/04/13 05:34:35;;;;;;;18.92;9.18;;;9.50;62.60;;;;;;5052259;28;20029;-72
2022/04/13 05:37:01;;;;;;;16.38;8.82;;;9.50;62.90;;;;;;5050201;28;20474;-72
2022/04/13 05:39:26;;;;;;;14.80;8.75;;;9.50;62.40;;;;;;5052151;28;20025;-71
2022/04/13 05:41:52;;;;;;;15.85;8.70;;;9.60;62.60;;;;;;5052171;28;20057;-71
2022/04/13 05:44:18;;;;;;;19.58;8.20;;;9.50;62.50;;;;;;5051388;28;20116;-71
2022/04/13 05:46:43;;;;;;;13.95;8.77;;;9.60;62.30;;;;;;5052080;28;20373;-72
2022/04/13 05:49:09;;;;;;;16.00;7.97;;;9.70;62.20;;;;;;5051081;28;20033;-71
2022/04/13 05:51:34;;;;;;;14.18;9.13;;;9.80;62.20;;;;;;5050565;28;20473;-71
2022/04/13 05:54:00;;;;;;;16.80;8.90;;;9.90;61.80;;;;;;5051240;28;20031;-72
2022/04/13 05:56:26;;;;;;;13.63;8.88;;;9.90;61.20;;;;;;5051568;28;20056;-72
2022/04/13 05:58:52;;;;;;;16.77;9.60;;;10.00;61.00;;;;;;5051909;28;20112;-71
2022/04/13 06:01:30;;;;;;;15.35;8.52;;;10.10;61.30;;;;;;5129826;27;20368;-73
2022/04/13 06:03:55;;;;;;;15.98;9.00;;;10.30;60.40;;;;;;5109715;28;20387;-71
2022/04/13 06:06:25;;;;;;;13.65;8.13;;;10.40;59.60;;;;;;5109151;28;20028;-72
2022/04/13 06:08:51;;;;;;;15.45;8.05;;;10.60;59.20;;;;;;5109778;28;20380;-72
2022/04/13 06:11:16;;;;;;;15.25;8.52;;;10.80;58.60;;;;;;5108933;28;20573;-72
2022/04/13 06:13:42;;;;;;;11.63;7.93;;;11.00;58.40;;;;;;5109551;28;20027;-72
2022/04/13 06:16:08;;;;;;;15.98;8.93;;;11.30;57.60;;;;;;5090735;28;20118;-73
2022/04/13 06:18:33;;;;;;;12.35;8.40;;;11.50;56.60;;;;;;5109224;28;20101;-72
2022/04/13 06:20:59;;;;;;;14.57;8.52;;;11.70;55.70;;;;;;5108670;28;20036;-73
2022/04/13 06:23:25;;;;;;;15.05;7.90;;;11.90;55.70;;;;;;5108802;28;20030;-73
2022/04/13 06:25:50;;;;;;;11.50;7.88;;;12.10;54.20;;;;;;5108739;28;20024;-73
2022/04/13 06:28:16;;;;;;;14.25;8.43;;;12.30;54.10;;;;;;5108583;28;20085;-72
2022/04/13 06:30:43;;;;;;;15.40;8.85;;;12.50;53.20;;;;;;5108983;28;20024;-73
2022/04/13 06:33:09;;;;;;;14.75;8.73;;;12.60;53.60;;;;;;5108379;28;20027;-73
2022/04/13 06:35:35;;;;;;;11.27;7.07;;;12.80;52.80;;;;;;5109116;28;20036;-73
2022/04/13 06:38:01;;;;;;;15.15;7.60;;;12.90;52.40;;;;;;5108341;28;20024;-72
2022/04/13 06:40:26;;;;;;;10.95;7.43;;;13.10;51.60;;;;;;5108905;28;20039;-71
2022/04/13 06:42:52;;;;;;;13.90;8.07;;;13.10;50.90;;;;;;5103127;28;20045;-72
2022/04/13 06:45:17;;;;;;;11.48;8.00;;;13.20;51.00;;;;;;5087881;28;20073;-73
2022/04/13 06:47:44;;;;;;;19.40;8.18;;;13.40;50.70;;;;;;5091301;28;20081;-73
2022/04/13 06:50:10;;;;;;;12.95;8.88;;;13.60;50.70;;;;;;5089922;28;20032;-73
2022/04/13 06:52:38;;;;;;;14.27;8.48;;;13.80;49.90;;;;;;5108612;28;20051;-73
2022/04/13 06:55:04;;;;;;;16.00;8.02;;;14.00;48.90;;;;;;5107882;28;20023;-73
2022/04/13 06:57:37;;;;;;;13.85;8.52;;;14.20;48.60;;;;;;5108250;28;20042;-73
2022/04/13 07:00:04;;;;;;;14.50;8.57;;;14.50;48.30;;;;;;5107875;28;20143;-73
2022/04/13 07:02:30;;;;;;;15.68;8.55;;;15.20;47.20;;;;;;5108763;28;20032;-74
2022/04/13 07:04:56;;;;;;;12.50;8.40;;;16.50;44.70;;;;;;5108681;28;20023;-74
2022/04/13 07:07:21;;;;;;;11.40;7.75;;;18.60;42.80;;;;;;5107843;28;20362;-73
2022/04/13 07:09:47;;;;;;;15.88;8.07;;;20.40;38.30;;;;;;5108615;28;20361;-73
2022/04/13 07:12:13;;;;;;;14.63;7.80;;;21.20;36.10;;;;;;5097781;28;20032;-74
2022/04/13 07:14:41;;;;;;;10.90;8.02;;;22.20;34.40;;;;;;5094485;28;20433;-73
2022/04/13 07:17:08;;;;;;;10.85;7.78;;;22.70;32.70;;;;;;5094065;28;20030;-73
2022/04/13 07:19:34;;;;;;;12.93;8.35;;;23.40;32.40;;;;;;5094134;28;20104;-74
2022/04/13 07:21:59;;;;;;;10.70;7.45;;;24.70;30.90;;;;;;5094300;28;20032;-73
2022/04/13 07:24:26;;;;;;;10.65;7.55;;;25.20;30.30;;;;;;5093899;28;20024;-73
2022/04/13 07:26:52;;;;;;;10.63;7.70;;;26.50;29.40;;;;;;5094503;28;20017;-73
2022/04/13 07:29:17;;;;;;;14.85;7.45;;;26.60;28.40;;;;;;5093704;28;20467;-73
2022/04/13 07:31:43;;;;;;;12.40;7.53;;;26.60;28.60;;;;;;5094286;28;20073;-73
2022/04/13 07:34:08;;;;;;;11.65;7.43;;;26.90;27.80;;;;;;5093670;28;20045;-73
2022/04/13 07:36:34;;;;;;;15.55;7.72;;;26.50;27.90;;;;;;5093954;28;20024;-73
2022/04/13 07:39:01;;;;;;;12.43;7.55;;;26.30;28.20;;;;;;5094224;28;20412;-72
2022/04/13 07:41:27;;;;;;;13.35;7.47;;;26.50;27.90;;;;;;5093262;28;20032;-74
2022/04/13 07:43:52;;;;;;;9.48;7.13;;;26.60;27.70;;;;;;5075938;28;20077;-74
2022/04/13 07:46:18;;;;;;;12.45;7.13;;;26.50;27.70;;;;;;5093498;28;20027;-73
2022/04/13 07:48:44;;;;;;;10.65;7.40;;;27.10;27.30;;;;;;5082850;28;20024;-74
2022/04/13 07:51:10;;;;;;;14.63;7.97;;;27.20;27.60;;;;;;5073024;28;20033;-73
2022/04/13 07:53:36;;;;;;;13.15;7.57;;;27.70;27.20;;;;;;5073369;28;20055;-73
2022/04/13 07:56:01;;;;;;;11.30;7.55;;;27.90;27.60;;;;;;5073888;28;20035;-74
2022/04/13 07:58:27;;;;;;;9.77;6.65;;;28.30;26.70;;;;;;5073498;28;20035;-74
2022/04/13 08:00:52;;;;;;;9.45;7.60;;;28.20;26.60;;;;;;5073316;28;20063;-73
2022/04/13 08:03:18;;;;;;;14.80;7.45;;;28.60;26.40;;;;;;5073390;28;20021;-73
2022/04/13 08:05:44;;;;;;;9.15;6.88;;;28.70;26.50;;;;;;5073661;28;20036;-73
2022/04/13 08:08:10;;;;;;;9.95;6.93;;;27.50;26.70;;;;;;5073141;28;20424;-74
2022/04/13 08:10:35;;;;;;;15.70;7.65;;;26.90;27.00;;;;;;5073474;28;20513;-73
2022/04/13 08:13:01;;;;;;;13.75;7.70;;;27.40;27.80;;;;;;5073361;28;20021;-74
2022/04/13 08:15:26;;;;;;;13.20;7.78;;;27.30;27.40;;;;;;5072604;28;20066;-73
2022/04/13 08:17:52;;;;;;;16.05;7.57;;;27.70;27.10;;;;;;5073420;28;20029;-73
2022/04/13 08:20:18;;;;;;;12.88;7.13;;;28.40;26.70;;;;;;5072730;28;20087;-73
2022/04/13 08:22:44;;;;;;;14.18;7.70;;;27.50;27.20;;;;;;5072625;28;20487;-73
2022/04/13 08:25:10;;;;;;;9.82;7.32;;;26.90;27.70;;;;;;5072305;28;20036;-73
2022/04/13 08:27:36;;;;;;;10.43;7.38;;;26.90;27.90;;;;;;5072883;28;20024;-73
2022/04/13 08:30:02;;;;;;;17.05;7.50;;;25.90;28.20;;;;;;5072974;28;20035;-73
2022/04/13 08:32:47;;;;;;;16.98;7.47;;;26.40;28.00;;;;;;5072212;28;20031;-74
2022/04/13 08:35:12;;;;;;;11.57;7.10;;;26.30;27.70;;;;;;5081145;28;20062;-73
2022/04/13 08:37:38;;;;;;;11.35;7.60;;;25.10;28.50;;;;;;5093129;28;20120;-73
2022/04/13 08:40:05;;;;;;;12.77;7.75;;;24.20;29.50;;;;;;5093033;28;20032;-73
2022/04/13 08:42:51;;;;;;;15.52;7.57;;;23.10;30.60;;;;;;5092336;28;20020;-73
2022/04/13 08:45:30;;;;;;;15.85;7.40;;;22.00;31.80;;;;;;5089070;28;20036;-74
2022/04/13 08:48:00;;;;;;;13.52;6.88;;;21.00;33.90;;;;;;5074701;28;20073;-73
2022/04/13 08:50:28;;;;;;;13.18;7.05;;;20.20;34.70;;;;;;5092087;28;20036;-73
2022/04/13 08:53:02;;;;;;;12.30;7.60;;;19.80;36.50;;;;;;5092558;28;20028;-74
2022/04/13 08:55:29;;;;;;;11.43;6.97;;;19.50;36.30;;;;;;5092200;28;20016;-72
2022/04/13 08:58:14;;;;;;;13.02;7.50;;;19.50;37.00;;;;;;5074734;28;20024;-73
2022/04/13 09:00:48;;;;;;;14.15;7.53;;;19.40;36.70;;;;;;5092744;28;20063;-73
2022/04/13 09:03:46;;;;;;;11.98;7.00;;;19.20;37.00;;;;;;5092315;28;20484;-72
2022/04/13 09:06:13;;;;;;;13.82;7.90;;;18.90;38.10;;;;;;5091595;28;20105;-73
2022/04/13 09:09:00;;;;;;;13.80;7.22;;;18.70;37.90;;;;;;5092443;28;20028;-72
2022/04/13 09:11:28;;;;;;;14.55;8.50;;;18.50;38.60;;;;;;5091940;28;20058;-73
2022/04/13 09:13:54;;;;;;;12.38;7.63;;;18.60;39.90;;;;;;5092524;28;20028;-73
2022/04/13 09:16:19;;;;;;;15.60;7.40;;;18.40;38.60;;;;;;5091878;28;20489;-74
2022/04/13 09:18:46;;;;;;;12.05;7.53;;;18.20;39.30;;;;;;5092356;28;20074;-73
2022/04/13 09:21:13;;;;;;;12.23;7.30;;;18.10;39.90;;;;;;5091730;28;20034;-74
2022/04/13 09:23:40;;;;;;;15.00;7.25;;;18.30;40.00;;;;;;5092012;28;20085;-73
2022/04/13 09:26:07;;;;;;;12.70;7.38;;;18.20;39.80;;;;;;5092418;28;20024;-73
2022/04/13 09:28:33;;;;;;;12.35;7.40;;;18.30;39.90;;;;;;5091822;28;20103;-73
2022/04/13 09:31:00;;;;;;;15.43;7.85;;;18.30;39.20;;;;;;5092128;28;20114;-74
2022/04/13 09:33:26;;;;;;;13.27;7.20;;;18.20;39.40;;;;;;5091635;28;20066;-74
2022/04/13 09:35:53;;;;;;;13.85;7.60;;;18.20;39.40;;;;;;5091924;28;20421;-73
2022/04/13 09:38:20;;;;;;;16.27;7.28;;;18.10;39.80;;;;;;5091339;28;20028;-73
2022/04/13 09:40:46;;;;;;;16.63;8.30;;;18.30;40.30;;;;;;5092096;28;20028;-73
2022/04/13 09:43:14;;;;;;;18.25;8.45;;;18.30;39.50;;;;;;5092177;28;20456;-74
2022/04/13 09:45:49;;;;;;;15.20;7.63;;;18.30;40.40;;;;;;5092329;28;20035;-73
2022/04/13 09:48:24;;;;;;;11.82;7.80;;;18.30;40.20;;;;;;5091406;28;20111;-73
2022/04/13 09:50:51;;;;;;;10.85;7.20;;;18.40;40.00;;;;;;5092148;28;20032;-73
2022/04/13 09:53:20;;;;;;;18.63;8.32;;;18.30;39.50;;;;;;5091368;28;20028;-73
2022/04/13 09:55:53;;;;;;;13.48;7.20;;;18.30;39.50;;;;;;5091992;28;20020;-73
2022/04/13 09:58:25;;;;;;;14.40;7.00;;;18.30;39.80;;;;;;5091420;28;20157;-72
2022/04/13 10:00:52;;;;;;;;;;;18.30;39.90;;;;;;5092166;28;20054;-73
2022/04/13 10:03:20;;;;;;;12.43;7.68;;;18.30;40.00;;;;;;5091343;28;19910;-73
2022/04/13 10:05:50;;;;;;;12.10;6.90;;;18.30;39.80;;;;;;5073836;28;20322;-73
2022/04/13 10:08:22;;;;;;;19.73;7.55;;;18.30;39.70;;;;;;5091287;28;20115;-72
2022/04/13 10:10:49;;;;;;;13.48;7.45;;;18.30;39.80;;;;;;5092057;28;20054;-73
2022/04/13 10:13:36;;;;;;;17.67;7.05;;;18.30;40.00;;;;;;5091475;28;20395;-74
2022/04/13 10:16:04;;;;;;;14.70;7.07;;;18.30;40.10;;;;;;5090930;28;20032;-72
2022/04/13 10:18:50;;;;;;;11.68;6.63;;;18.40;40.50;;;;;;5090875;28;20044;-72
2022/04/13 10:21:37;;;;;;;13.23;7.32;;;18.30;40.00;;;;;;5090718;28;20032;-73
2022/04/13 10:24:03;;;;;;;24.63;7.38;;;18.30;40.30;;;;;;5091849;28;20442;-72
2022/04/13 10:26:29;;;;;;;18.77;7.30;;;18.30;40.10;;;;;;5091152;28;20086;-73
2022/04/13 10:28:54;;;;;;;13.60;7.07;;;18.30;40.30;;;;;;5091714;28;20028;-72
2022/04/13 10:31:20;;;;;;;13.25;6.75;;;18.30;41.00;;;;;;5090769;28;20067;-74
2022/04/13 10:33:47;;;;;;;10.32;6.53;;;18.40;40.80;;;;;;5092016;28;20016;-73
2022/04/13 10:36:15;;;;;;;13.48;7.47;;;18.50;40.40;;;;;;5091648;28;20031;-73
2022/04/13 10:38:41;;;;;;;12.25;7.45;;;18.60;40.60;;;;;;5091102;28;20032;-72
2022/04/13 10:41:09;;;;;;;14.63;7.07;;;18.70;40.20;;;;;;5091345;28;20038;-72
2022/04/13 10:43:36;;;;;;;12.93;7.10;;;18.80;39.90;;;;;;5090796;28;20454;-72
2022/04/13 10:46:02;;;;;;;25.30;9.30;;;18.80;39.80;;;;;;5091057;28;20028;-71
2022/04/13 10:48:32;;;;;;;13.43;7.28;;;18.90;39.60;;;;;;5094699;28;20086;-72
2022/04/13 10:51:08;;;;;;;10.60;6.40;;;18.90;39.30;;;;;;5095543;28;20035;-72
2022/04/13 10:53:38;;;;;;;13.90;6.95;;;18.90;39.50;;;;;;5093667;28;20473;-73
2022/04/13 10:56:06;;;;;;;13.93;7.40;;;19.00;39.10;;;;;;5061564;28;20032;-72
2022/04/13 10:58:53;;;;;;;9.98;6.63;;;18.90;39.10;;;;;;5094481;28;20021;-73
2022/04/13 11:01:20;;;;;;;13.93;6.85;;;19.00;39.30;;;;;;5094179;28;20113;-70
2022/04/13 11:03:47;;;;;;;11.48;6.63;;;19.00;39.10;;;;;;5095153;28;20024;-72
2022/04/13 11:06:13;;;;;;;13.98;7.40;;;19.00;38.60;;;;;;5095022;28;20105;-72
2022/04/13 11:08:51;;;;;;;10.18;6.13;;;19.00;39.70;;;;;;5094415;28;20042;-73
2022/04/13 11:11:21;;;;;;;13.40;6.75;;;19.00;39.10;;;;;;5094637;28;20032;-72
2022/04/13 11:13:49;;;;;;;9.93;6.00;;;19.00;38.90;;;;;;5094798;28;20028;-72
2022/04/13 11:16:19;;;;;;;13.55;6.30;;;19.00;38.90;;;;;;5094790;28;20453;-72
2022/04/13 11:19:06;;;;;;;13.20;6.95;;;19.00;39.20;;;;;;5095097;28;20078;-72
2022/04/13 11:21:55;;;;;;;11.85;6.78;;;19.00;38.60;;;;;;5093699;28;20032;-72
2022/04/13 11:24:40;;;;;;;16.70;6.30;;;19.00;38.80;;;;;;5075742;28;20081;-73
2022/04/13 11:27:10;;;;;;;11.27;6.22;;;19.10;39.20;;;;;;5094505;28;20024;-71
2022/04/13 11:29:59;;;;;;;13.45;6.72;;;19.20;38.80;;;;;;5094044;28;20464;-73
2022/04/13 11:32:29;;;;;;;10.63;6.35;;;19.20;38.60;;;;;;5093573;28;20034;-73
2022/04/13 11:34:54;;;;;;;14.40;6.68;;;19.10;38.80;;;;;;5094316;28;20060;-73
2022/04/13 11:37:25;;;;;;;8.85;6.10;;;19.10;38.50;;;;;;5094216;28;20024;-75
2022/04/13 11:40:06;;;;;;;11.75;5.70;;;19.10;38.90;;;;;;5094362;28;20067;-72
2022/04/13 11:42:34;;;;;;;14.03;6.13;;;19.10;38.70;;;;;;5093885;28;20040;-73
2022/04/13 11:45:05;;;;;;;11.85;5.85;;;19.10;38.90;;;;;;5094185;28;20415;-73
2022/04/13 11:47:56;;;;;;;11.40;6.70;;;19.10;38.70;;;;;;5093772;28;20025;-73
2022/04/13 11:50:23;;;;;;;10.98;5.97;;;19.10;38.90;;;;;;5093845;28;20031;-73
2022/04/13 11:53:03;;;;;;;12.30;6.75;;;19.10;39.00;;;;;;5094218;28;20024;-72
2022/04/13 11:55:35;;;;;;;12.52;6.30;;;19.20;39.20;;;;;;5093668;28;20024;-72
2022/04/13 11:58:09;;;;;;;11.25;6.20;;;19.20;39.00;;;;;;5076027;28;20362;-73
2022/04/13 12:00:54;;;;;;;10.07;6.53;;;19.20;38.70;;;;;;5093196;28;20044;-73
2022/04/13 12:03:39;;;;;;;11.63;5.93;;;19.20;38.60;;;;;;5094160;28;20038;-72
2022/04/13 12:06:25;;;;;;;10.57;6.00;;;19.20;38.80;;;;;;5094007;28;20016;-72
2022/04/13 12:08:59;;;;;;;9.13;5.95;;;19.20;38.80;;;;;;5093751;28;20118;-73
2022/04/13 12:11:46;;;;;;;9.75;5.90;;;19.10;38.70;;;;;;5092579;28;20508;-74
2022/04/13 12:14:26;;;;;;;10.32;5.40;;;19.10;38.80;;;;;;5093621;28;20067;-73
2022/04/13 12:16:55;;;;;;;13.25;5.85;;;19.10;39.00;;;;;;5093835;28;20028;-73
2022/04/13 12:19:21;;;;;;;13.23;5.63;;;19.10;38.70;;;;;;5093687;28;20020;-73
2022/04/13 12:21:46;;;;;;;10.93;6.45;;;19.10;38.90;;;;;;5092922;28;20354;-73
2022/04/13 12:24:12;;;;;;;7.75;5.82;;;19.00;38.80;;;;;;5093420;28;20031;-73
2022/04/13 12:26:41;;;;;;;8.13;5.13;;;19.00;38.50;;;;;;5093090;28;20024;-72
2022/04/13 12:29:29;;;;;;;10.20;5.72;;;18.90;39.00;;;;;;5093424;28;20169;-73
2022/04/13 12:31:55;;;;;;;11.55;6.63;;;18.90;39.70;;;;;;5093109;28;20028;-73
2022/04/13 12:34:24;;;;;;;7.50;5.70;;;18.80;39.90;;;;;;5092944;28;20046;-73
2022/04/13 12:36:56;;;;;;;10.80;5.40;;;18.70;39.80;;;;;;5092801;28;20028;-72
2022/04/13 12:39:35;;;;;;;9.75;5.82;;;18.70;40.10;;;;;;5093307;28;20020;-72
2022/04/13 12:42:03;;;;;;;9.77;6.20;;;18.70;39.90;;;;;;5093358;28;20457;-73
2022/04/13 12:44:29;;;;;;;15.93;6.80;;;18.70;40.30;;;;;;5092230;28;20032;-70
2022/04/13 12:47:05;;;;;;;12.63;5.78;;;18.70;40.30;;;;;;5093130;28;20040;-73
2022/04/13 12:49:31;;;;;;;8.25;5.75;;;18.60;40.30;;;;;;5092404;28;20024;-73